Time;durP1;ratioP1;P1;durP2;ratioP2;P2;SDS_P1;SDS_P2;PMS_P1;PMS_P2;Temp;Humidity;BMP_temperature;BMP_pressure;BME280_temperature;BME280_humidity;BME280_pressure;Samples;Min_cycle;Max_cycle;Signal;HPM_P1;HPM_P2
2023/09/13 00:02:15;;;;;;;9.70;3.30;;;;;;;;;;5100985;28;20032;-67
2023/09/13 00:04:40;;;;;;;4.20;2.40;;;;;;;;;;5097792;28;20032;-67
2023/09/13 00:07:06;;;;;;;15.55;2.13;;;;;;;;;;5096611;28;20062;-67
2023/09/13 00:09:31;;;;;;;11.07;1.90;;;;;;;;;;5111903;28;20058;-67
2023/09/13 00:11:56;;;;;;;5.85;2.22;;;;;;;;;;5115800;28;20103;-67
2023/09/13 00:14:21;;;;;;;7.20;2.50;;;;;;;;;;5116321;28;20027;-67
2023/09/13 00:16:47;;;;;;;5.70;2.15;;;;;;;;;;5101775;28;20097;-67
2023/09/13 00:19:12;;;;;;;4.88;1.65;;;;;;;;;;5095654;28;20088;-67
2023/09/13 00:21:40;;;;;;;5.47;1.95;;;;;;;;;;5104168;28;20023;-67
2023/09/13 00:24:11;;;;;;;5.55;2.50;;;;;;;;;;5094260;28;20024;-67
2023/09/13 00:26:36;;;;;;;8.00;2.67;;;;;;;;;;5094995;28;20036;-67
2023/09/13 00:29:02;;;;;;;5.80;2.03;;;;;;;;;;5100381;28;20020;-67
2023/09/13 00:31:27;;;;;;;7.47;1.80;;;;;;;;;;5095262;28;20024;-67
2023/09/13 00:33:53;;;;;;;7.57;2.67;;;;;;;;;;5102775;28;20020;-67
2023/09/13 00:36:18;;;;;;;5.40;2.33;;;;;;;;;;5094747;28;20024;-67
2023/09/13 00:38:43;;;;;;;5.43;1.95;;;;;;;;;;5094951;28;20084;-67
2023/09/13 00:41:09;;;;;;;4.70;1.88;;;;;;;;;;5107142;28;20027;-67
2023/09/13 00:43:34;;;;;;;8.05;2.05;;;;;;;;;;5114877;28;20028;-67
2023/09/13 00:45:59;;;;;;;6.45;2.22;;;;;;;;;;5111187;28;20387;-67
2023/09/13 00:48:24;;;;;;;10.65;2.05;;;;;;;;;;5105275;28;20062;-67
2023/09/13 00:50:50;;;;;;;3.40;1.90;;;;;;;;;;5113944;28;20081;-67
2023/09/13 00:53:17;;;;;;;5.70;2.05;;;;;;;;;;5112687;28;20032;-67
2023/09/13 00:55:42;;;;;;;6.57;2.40;;;;;;;;;;5114134;28;20038;-67
2023/09/13 00:58:08;;;;;;;7.68;2.08;;;;;;;;;;5113837;28;20031;-67
2023/09/13 01:00:34;;;;;;;4.95;1.75;;;;;;;;;;5109759;28;20020;-67
2023/09/13 01:02:59;;;;;;;6.25;2.80;;;;;;;;;;5102166;28;20055;-67
2023/09/13 01:05:25;;;;;;;7.05;2.33;;;;;;;;;;5094599;28;20027;-67
2023/09/13 01:07:51;;;;;;;6.28;2.08;;;;;;;;;;5098782;28;20019;-67
2023/09/13 01:10:16;;;;;;;5.13;2.55;;;;;;;;;;5102370;28;20078;-67
2023/09/13 01:12:41;;;;;;;6.53;2.20;;;;;;;;;;5097770;28;20027;-67
2023/09/13 01:15:07;;;;;;;8.13;2.63;;;;;;;;;;5094468;28;20473;-67
2023/09/13 01:17:51;;;;;;;5.35;2.45;;;;;;;;;;5096735;28;20107;-67
2023/09/13 01:20:20;;;;;;;9.40;2.20;;;;;;;;;;5096218;28;20024;-67
2023/09/13 01:22:55;;;;;;;4.43;1.77;;;;;;;;;;5092889;28;20028;-67
2023/09/13 01:25:39;;;;;;;5.38;2.03;;;;;;;;;;5102552;28;20081;-67
2023/09/13 01:28:32;;;;;;;3.63;1.60;;;;;;;;;;5094086;28;20020;-67
2023/09/13 01:30:57;;;;;;;4.07;1.23;;;;;;;;;;5105275;28;20043;-67
2023/09/13 01:33:23;;;;;;;5.10;1.95;;;;;;;;;;5114565;28;20469;-67
2023/09/13 01:35:48;;;;;;;6.97;1.95;;;;;;;;;;5114322;28;20024;-67
2023/09/13 01:38:13;;;;;;;7.18;2.17;;;;;;;;;;5114517;28;20031;-67
2023/09/13 01:40:40;;;;;;;4.65;1.70;;;;;;;;;;5112403;28;20477;-67
2023/09/13 01:43:06;;;;;;;5.35;2.13;;;;;;;;;;5112672;28;20111;-67
2023/09/13 01:45:33;;;;;;;4.65;1.83;;;;;;;;;;5113241;28;20102;-67
2023/09/13 01:47:59;;;;;;;8.15;2.05;;;;;;;;;;5106930;28;20111;-67
2023/09/13 01:50:25;;;;;;;5.03;2.22;;;;;;;;;;5103687;28;20031;-67
2023/09/13 01:52:50;;;;;;;6.97;2.17;;;;;;;;;;5114185;28;20027;-67
2023/09/13 01:55:15;;;;;;;6.75;2.33;;;;;;;;;;5114065;28;20024;-67
2023/09/13 01:57:40;;;;;;;5.95;2.17;;;;;;;;;;5111957;28;20027;-67
2023/09/13 02:00:06;;;;;;;8.15;2.90;;;;;;;;;;5113999;28;20089;-67
2023/09/13 02:02:31;;;;;;;4.53;1.75;;;;;;;;;;5113445;28;20039;-67
2023/09/13 02:04:57;;;;;;;4.28;1.60;;;;;;;;;;5113962;28;20451;-67
2023/09/13 02:07:22;;;;;;;8.80;2.50;;;;;;;;;;5113091;28;20024;-67
2023/09/13 02:09:47;;;;;;;6.13;2.13;;;;;;;;;;5102911;28;20032;-67
2023/09/13 02:12:13;;;;;;;5.93;2.20;;;;;;;;;;5092904;28;20461;-67
2023/09/13 02:14:41;;;;;;;5.38;2.97;;;;;;;;;;5100454;28;20076;-67
2023/09/13 02:17:08;;;;;;;4.95;2.22;;;;;;;;;;5113823;28;20062;-67
2023/09/13 02:19:34;;;;;;;4.82;1.73;;;;;;;;;;5094895;28;20015;-67
2023/09/13 02:21:59;;;;;;;5.40;1.73;;;;;;;;;;5106319;28;20093;-67
2023/09/13 02:24:24;;;;;;;10.38;2.13;;;;;;;;;;5107506;28;20028;-67
2023/09/13 02:26:56;;;;;;;5.70;1.92;;;;;;;;;;5097348;28;20031;-67
2023/09/13 02:29:22;;;;;;;8.40;2.30;;;;;;;;;;5110319;28;20039;-67
2023/09/13 02:31:47;;;;;;;9.77;2.30;;;;;;;;;;5096037;28;20411;-67
2023/09/13 02:34:13;;;;;;;6.43;3.33;;;;;;;;;;5094197;28;20024;-67
2023/09/13 02:36:38;;;;;;;5.30;1.88;;;;;;;;;;5092510;28;20024;-67
2023/09/13 02:39:03;;;;;;;7.43;2.55;;;;;;;;;;5108811;28;20480;-67
2023/09/13 02:41:29;;;;;;;7.72;2.65;;;;;;;;;;5112884;28;20035;-67
2023/09/13 02:43:54;;;;;;;10.30;2.38;;;;;;;;;;5098749;28;20507;-67
2023/09/13 02:46:19;;;;;;;10.80;2.30;;;;;;;;;;5092363;28;20020;-67
2023/09/13 02:48:45;;;;;;;5.43;2.10;;;;;;;;;;5099471;28;20546;-67
2023/09/13 02:51:12;;;;;;;10.40;2.45;;;;;;;;;;5113282;28;20020;-67
2023/09/13 02:53:37;;;;;;;6.65;2.63;;;;;;;;;;5113447;28;20135;-67
2023/09/13 02:56:04;;;;;;;6.75;2.50;;;;;;;;;;5112698;28;20474;-67
2023/09/13 02:58:30;;;;;;;12.95;3.90;;;;;;;;;;5112185;28;20030;-67
2023/09/13 03:00:56;;;;;;;7.68;2.38;;;;;;;;;;5095631;28;20389;-67
2023/09/13 03:03:22;;;;;;;8.77;2.25;;;;;;;;;;5092570;28;20028;-67
2023/09/13 03:05:47;;;;;;;7.55;2.03;;;;;;;;;;5099118;28;20027;-67
2023/09/13 03:08:13;;;;;;;5.97;2.22;;;;;;;;;;5113173;28;20370;-67
2023/09/13 03:10:38;;;;;;;9.38;2.33;;;;;;;;;;5111445;28;20020;-67
2023/09/13 03:13:03;;;;;;;6.85;2.05;;;;;;;;;;5108000;28;20020;-67
2023/09/13 03:15:32;;;;;;;5.57;2.13;;;;;;;;;;5092606;28;20077;-67
2023/09/13 03:17:57;;;;;;;5.07;2.17;;;;;;;;;;5100836;28;20750;-67
2023/09/13 03:20:22;;;;;;;10.07;2.90;;;;;;;;;;5108647;28;20481;-67
2023/09/13 03:22:48;;;;;;;11.27;2.45;;;;;;;;;;5104069;28;20020;-67
2023/09/13 03:25:13;;;;;;;6.97;2.22;;;;;;;;;;5094774;28;20020;-67
2023/09/13 03:27:38;;;;;;;6.45;2.60;;;;;;;;;;5113883;28;20027;-67
2023/09/13 03:30:04;;;;;;;5.88;1.77;;;;;;;;;;5116776;28;20016;-67
2023/09/13 03:32:30;;;;;;;4.95;2.03;;;;;;;;;;5113262;28;20392;-67
2023/09/13 03:34:55;;;;;;;9.93;2.22;;;;;;;;;;5098646;28;20020;-67
2023/09/13 03:37:20;;;;;;;4.70;2.25;;;;;;;;;;5095726;28;20034;-67
2023/09/13 03:39:45;;;;;;;7.45;2.35;;;;;;;;;;5107974;28;20054;-67
2023/09/13 03:42:11;;;;;;;12.70;2.70;;;;;;;;;;5095794;28;20059;-67
2023/09/13 03:44:36;;;;;;;4.63;1.80;;;;;;;;;;5101945;28;20024;-67
2023/09/13 03:47:01;;;;;;;8.73;2.63;;;;;;;;;;5095818;28;20497;-67
2023/09/13 03:49:26;;;;;;;12.20;2.60;;;;;;;;;;5096257;28;20028;-67
2023/09/13 03:51:52;;;;;;;7.43;2.45;;;;;;;;;;5115147;28;20489;-67
2023/09/13 03:54:17;;;;;;;5.38;2.20;;;;;;;;;;5116088;28;20028;-67
2023/09/13 03:56:42;;;;;;;5.30;1.90;;;;;;;;;;5116719;28;20026;-67
2023/09/13 03:59:08;;;;;;;6.15;2.63;;;;;;;;;;5115767;28;20027;-67
2023/09/13 04:01:33;;;;;;;12.68;2.40;;;;;;;;;;5115798;28;20469;-67
2023/09/13 04:03:58;;;;;;;7.70;1.95;;;;;;;;;;5098574;28;20106;-67
2023/09/13 04:06:24;;;;;;;10.43;3.13;;;;;;;;;;5095737;28;20394;-67
2023/09/13 04:08:49;;;;;;;7.55;2.30;;;;;;;;;;5099752;28;20028;-67
2023/09/13 04:11:14;;;;;;;6.47;1.55;;;;;;;;;;5095590;28;20039;-67
2023/09/13 04:13:39;;;;;;;6.93;2.20;;;;;;;;;;5097584;28;20023;-67
2023/09/13 04:16:06;;;;;;;8.68;2.45;;;;;;;;;;5102629;28;20034;-67
2023/09/13 04:18:31;;;;;;;7.80;2.10;;;;;;;;;;5094253;28;20269;-67
2023/09/13 04:20:57;;;;;;;4.55;2.20;;;;;;;;;;5105339;28;20569;-67
2023/09/13 04:23:22;;;;;;;12.68;2.53;;;;;;;;;;5113977;28;20085;-67
2023/09/13 04:25:47;;;;;;;7.90;2.03;;;;;;;;;;5116050;28;20028;-67
2023/09/13 04:28:13;;;;;;;7.70;1.77;;;;;;;;;;5115678;28;20016;-67
2023/09/13 04:30:38;;;;;;;9.90;2.00;;;;;;;;;;5115366;28;20389;-67
2023/09/13 04:33:06;;;;;;;10.35;2.00;;;;;;;;;;5116320;28;20416;-67
2023/09/13 04:35:32;;;;;;;10.88;2.03;;;;;;;;;;5114472;28;20020;-67
2023/09/13 04:37:57;;;;;;;6.18;2.00;;;;;;;;;;5114424;28;20022;-67
2023/09/13 04:40:22;;;;;;;14.13;2.50;;;;;;;;;;5115652;28;20030;-67
2023/09/13 04:42:55;;;;;;;9.68;2.88;;;;;;;;;;5106477;28;20409;-67
2023/09/13 04:45:21;;;;;;;5.88;1.95;;;;;;;;;;5115612;28;20089;-67
2023/09/13 04:47:47;;;;;;;10.07;2.33;;;;;;;;;;5114739;28;20027;-67
2023/09/13 04:50:12;;;;;;;6.80;1.90;;;;;;;;;;5115310;28;20035;-67
2023/09/13 04:52:37;;;;;;;10.50;2.45;;;;;;;;;;5110241;28;20016;-67
2023/09/13 04:55:05;;;;;;;8.93;2.83;;;;;;;;;;5094968;28;20033;-67
2023/09/13 04:57:30;;;;;;;8.73;2.42;;;;;;;;;;5077063;28;20024;-67
2023/09/13 04:59:55;;;;;;;7.45;2.92;;;;;;;;;;5094838;28;20107;-67
2023/09/13 05:02:21;;;;;;;12.20;2.45;;;;;;;;;;5094769;28;20023;-67
2023/09/13 05:04:46;;;;;;;8.43;2.45;;;;;;;;;;5094905;28;20020;-67
2023/09/13 05:07:12;;;;;;;8.07;2.60;;;;;;;;;;5094843;28;20032;-67
2023/09/13 05:09:37;;;;;;;8.95;2.13;;;;;;;;;;5094430;28;20028;-67
2023/09/13 05:12:03;;;;;;;8.30;2.58;;;;;;;;;;5093824;28;20051;-67
2023/09/13 05:14:28;;;;;;;8.80;2.60;;;;;;;;;;5093110;28;20035;-67
2023/09/13 05:16:54;;;;;;;8.95;2.78;;;;;;;;;;5094564;28;20106;-67
2023/09/13 05:19:19;;;;;;;10.20;2.35;;;;;;;;;;5094478;28;20024;-67
2023/09/13 05:21:44;;;;;;;10.35;2.47;;;;;;;;;;5094312;28;20436;-67
2023/09/13 05:24:10;;;;;;;7.35;2.03;;;;;;;;;;5093619;28;20023;-67
2023/09/13 05:26:35;;;;;;;8.73;2.28;;;;;;;;;;5093220;28;20083;-67
2023/09/13 05:29:02;;;;;;;7.60;2.00;;;;;;;;;;5093296;28;20397;-67
2023/09/13 05:31:27;;;;;;;7.93;2.13;;;;;;;;;;5094447;28;20103;-67
2023/09/13 05:33:52;;;;;;;9.15;2.00;;;;;;;;;;5093861;28;20504;-67
2023/09/13 05:36:18;;;;;;;8.98;2.22;;;;;;;;;;5094304;28;20028;-67
2023/09/13 05:38:43;;;;;;;9.80;2.70;;;;;;;;;;5094272;28;20024;-67
2023/09/13 05:41:09;;;;;;;6.72;2.25;;;;;;;;;;5092380;28;20111;-67
2023/09/13 05:43:39;;;;;;;9.70;2.53;;;;;;;;;;5093528;28;20047;-67
2023/09/13 05:46:04;;;;;;;6.22;2.83;;;;;;;;;;5092910;28;20056;-67
2023/09/13 05:48:30;;;;;;;6.40;2.28;;;;;;;;;;5093424;28;20073;-67
2023/09/13 05:50:55;;;;;;;6.15;2.42;;;;;;;;;;5093697;28;20050;-67
2023/09/13 05:53:21;;;;;;;4.50;1.92;;;;;;;;;;5092847;28;20070;-67
2023/09/13 05:55:46;;;;;;;10.63;2.45;;;;;;;;;;5094178;28;20077;-67
2023/09/13 05:58:12;;;;;;;5.28;2.10;;;;;;;;;;5092714;28;20027;-67
2023/09/13 06:00:37;;;;;;;6.32;2.30;;;;;;;;;;5093857;28;20035;-67
2023/09/13 06:03:03;;;;;;;11.65;2.83;;;;;;;;;;5093396;28;20024;-67
2023/09/13 06:05:28;;;;;;;7.07;2.28;;;;;;;;;;5093195;28;20054;-67
2023/09/13 06:07:54;;;;;;;7.70;2.67;;;;;;;;;;5093285;28;20462;-67
2023/09/13 06:10:19;;;;;;;7.97;2.25;;;;;;;;;;5093163;28;20032;-67
2023/09/13 06:12:45;;;;;;;5.15;1.77;;;;;;;;;;5092593;28;20020;-67
2023/09/13 06:15:11;;;;;;;3.33;1.85;;;;;;;;;;5093203;28;20024;-67
2023/09/13 06:17:39;;;;;;;12.10;2.65;;;;;;;;;;5092138;28;20028;-67
2023/09/13 06:20:05;;;;;;;7.72;2.45;;;;;;;;;;5093092;28;20077;-68
2023/09/13 06:22:32;;;;;;;6.82;2.17;;;;;;;;;;5092839;28;20028;-67
2023/09/13 06:24:58;;;;;;;5.97;1.88;;;;;;;;;;5093069;28;20027;-67
2023/09/13 06:27:23;;;;;;;5.65;1.75;;;;;;;;;;5092442;28;20026;-67
2023/09/13 06:29:49;;;;;;;5.93;2.20;;;;;;;;;;5094197;28;20032;-67
2023/09/13 06:32:14;;;;;;;11.20;3.03;;;;;;;;;;5098027;28;20023;-67
2023/09/13 06:34:39;;;;;;;9.13;2.22;;;;;;;;;;5105694;28;20073;-67
2023/09/13 06:37:05;;;;;;;8.30;2.60;;;;;;;;;;5105518;28;20020;-67
2023/09/13 06:39:30;;;;;;;7.60;2.53;;;;;;;;;;5111005;28;20442;-67
2023/09/13 06:41:55;;;;;;;6.22;1.90;;;;;;;;;;5112780;28;20031;-67
2023/09/13 06:44:21;;;;;;;9.27;1.58;;;;;;;;;;5110368;28;20035;-67
2023/09/13 06:46:46;;;;;;;5.40;2.38;;;;;;;;;;5113330;28;20408;-67
2023/09/13 06:49:11;;;;;;;7.80;2.45;;;;;;;;;;5112368;28;20489;-67
2023/09/13 06:51:36;;;;;;;6.32;2.17;;;;;;;;;;5099023;28;20110;-67
2023/09/13 06:54:02;;;;;;;9.50;2.38;;;;;;;;;;5092837;28;20020;-67
2023/09/13 06:56:27;;;;;;;3.97;2.03;;;;;;;;;;5092561;28;20031;-68
2023/09/13 06:58:55;;;;;;;9.02;2.65;;;;;;;;;;5094605;28;20028;-67
2023/09/13 07:01:20;;;;;;;6.03;1.80;;;;;;;;;;5097039;28;20020;-67
2023/09/13 07:03:46;;;;;;;10.52;1.92;;;;;;;;;;5096133;28;20028;-67
2023/09/13 07:06:11;;;;;;;4.60;1.83;;;;;;;;;;5097191;28;20033;-67
2023/09/13 07:08:37;;;;;;;11.05;3.08;;;;;;;;;;5106653;28;20102;-67
2023/09/13 07:11:02;;;;;;;5.68;2.03;;;;;;;;;;5116737;28;20023;-67
2023/09/13 07:13:27;;;;;;;9.55;2.17;;;;;;;;;;5117738;28;20039;-68
2023/09/13 07:15:53;;;;;;;6.43;2.30;;;;;;;;;;5116836;28;20019;-67
2023/09/13 07:18:18;;;;;;;8.27;1.98;;;;;;;;;;5116924;28;20034;-68
2023/09/13 07:20:43;;;;;;;8.05;2.33;;;;;;;;;;5116174;28;20024;-68
2023/09/13 07:23:09;;;;;;;13.02;3.63;;;;;;;;;;5115132;22;20127;-69
2023/09/13 07:25:34;;;;;;;7.80;1.52;;;;;;;;;;5076841;28;20029;-69
2023/09/13 07:28:00;;;;;;;7.50;2.17;;;;;;;;;;5076986;28;20021;-69
2023/09/13 07:30:26;;;;;;;5.35;1.80;;;;;;;;;;5059083;28;20029;-69
2023/09/13 07:32:52;;;;;;;5.88;1.95;;;;;;;;;;5076289;28;20100;-69
2023/09/13 07:35:17;;;;;;;6.70;1.73;;;;;;;;;;5076771;28;20508;-69
2023/09/13 07:37:43;;;;;;;4.93;1.70;;;;;;;;;;5061942;28;20062;-69
2023/09/13 07:40:10;;;;;;;6.47;2.03;;;;;;;;;;5056872;28;20055;-69
2023/09/13 07:42:35;;;;;;;4.82;1.88;;;;;;;;;;5056497;28;20078;-69
2023/09/13 07:45:00;;;;;;;6.55;1.85;;;;;;;;;;5056488;28;20036;-69
2023/09/13 07:47:29;;;;;;;6.65;1.75;;;;;;;;;;5056970;28;20025;-69
2023/09/13 07:49:57;;;;;;;10.20;2.00;;;;;;;;;;5060596;28;20024;-69
2023/09/13 07:52:24;;;;;;;10.40;2.50;;;;;;;;;;5038837;28;20100;-68
2023/09/13 07:54:49;;;;;;;5.75;1.63;;;;;;;;;;5065463;28;20024;-68
2023/09/13 07:57:15;;;;;;;5.82;2.10;;;;;;;;;;5075857;28;20047;-67
2023/09/13 07:59:40;;;;;;;10.25;2.58;;;;;;;;;;5058614;28;20035;-68
2023/09/13 08:02:05;;;;;;;3.88;1.70;;;;;;;;;;5075909;28;20021;-68
2023/09/13 08:04:31;;;;;;;5.65;1.92;;;;;;;;;;5067424;28;20186;-69
2023/09/13 08:06:56;;;;;;;7.32;1.90;;;;;;;;;;5056192;28;20040;-68
2023/09/13 08:09:21;;;;;;;5.90;1.88;;;;;;;;;;5056059;28;20027;-69
2023/09/13 08:11:47;;;;;;;4.45;1.52;;;;;;;;;;5055133;28;20032;-68
2023/09/13 08:14:12;;;;;;;4.78;1.85;;;;;;;;;;5056348;28;20036;-68
2023/09/13 08:16:37;;;;;;;3.33;1.40;;;;;;;;;;5056306;28;20147;-69
2023/09/13 08:19:03;;;;;;;5.15;1.83;;;;;;;;;;5071839;28;20108;-68
2023/09/13 08:21:28;;;;;;;9.20;1.67;;;;;;;;;;5075965;28;20020;-68
2023/09/13 08:23:53;;;;;;;4.80;1.95;;;;;;;;;;5071550;28;20020;-68
2023/09/13 08:26:19;;;;;;;7.97;1.73;;;;;;;;;;5058583;28;20082;-68
2023/09/13 08:28:45;;;;;;;8.85;1.95;;;;;;;;;;5055732;28;20031;-68
2023/09/13 08:31:10;;;;;;;3.40;1.77;;;;;;;;;;5059540;28;20024;-68
2023/09/13 08:33:35;;;;;;;3.72;1.55;;;;;;;;;;5075865;28;20036;-68
2023/09/13 08:36:01;;;;;;;3.78;1.50;;;;;;;;;;5075583;28;20542;-68
2023/09/13 08:38:27;;;;;;;8.98;1.52;;;;;;;;;;5057221;28;20511;-68
2023/09/13 08:40:54;;;;;;;5.38;1.42;;;;;;;;;;5075863;28;20020;-69
2023/09/13 08:43:20;;;;;;;5.60;1.95;;;;;;;;;;5058204;28;20437;-69
2023/09/13 08:45:46;;;;;;;6.20;2.00;;;;;;;;;;5057462;28;20063;-69
2023/09/13 08:48:12;;;;;;;7.32;1.60;;;;;;;;;;5057241;28;20447;-69
2023/09/13 08:50:37;;;;;;;7.03;3.13;;;;;;;;;;5075483;28;20028;-68
2023/09/13 08:53:03;;;;;;;7.35;2.05;;;;;;;;;;5056932;28;20051;-68
2023/09/13 08:55:31;;;;;;;4.70;1.73;;;;;;;;;;5062060;28;20055;-69
2023/09/13 08:57:56;;;;;;;7.45;1.83;;;;;;;;;;5061901;28;20474;-69
2023/09/13 09:00:24;;;;;;;6.47;1.75;;;;;;;;;;5056589;28;20028;-69
2023/09/13 09:02:51;;;;;;;13.27;3.10;;;;;;;;;;5057196;28;20020;-69
2023/09/13 09:05:17;;;;;;;7.18;1.52;;;;;;;;;;5057315;28;20502;-69
2023/09/13 09:07:44;;;;;;;5.03;1.70;;;;;;;;;;5057301;28;20107;-69
2023/09/13 09:10:12;;;;;;;5.72;1.70;;;;;;;;;;5056859;28;20025;-69
2023/09/13 09:12:43;;;;;;;4.18;1.90;;;;;;;;;;5074720;28;20494;-69
2023/09/13 09:15:10;;;;;;;3.97;1.60;;;;;;;;;;5075071;28;20024;-69
2023/09/13 09:17:36;;;;;;;5.10;1.70;;;;;;;;;;5056935;28;20024;-69
2023/09/13 09:20:02;;;;;;;5.25;2.88;;;;;;;;;;5056529;28;20031;-69
2023/09/13 09:22:29;;;;;;;5.43;1.70;;;;;;;;;;5073546;28;20020;-69
2023/09/13 09:24:55;;;;;;;5.70;1.85;;;;;;;;;;5057427;28;20036;-69
2023/09/13 09:27:21;;;;;;;15.93;1.90;;;;;;;;;;5056573;28;20029;-69
2023/09/13 09:29:46;;;;;;;5.88;1.58;;;;;;;;;;5074584;28;20448;-70
2023/09/13 09:32:12;;;;;;;5.47;1.38;;;;;;;;;;5074268;28;20016;-68
2023/09/13 09:34:42;;;;;;;6.15;1.65;;;;;;;;;;5074279;28;20085;-68
2023/09/13 09:37:07;;;;;;;4.63;2.10;;;;;;;;;;5075035;28;20024;-68
2023/09/13 09:39:51;;;;;;;6.65;1.67;;;;;;;;;;5074589;28;20343;-67
2023/09/13 09:42:16;;;;;;;8.13;2.10;;;;;;;;;;5074528;28;20024;-67
2023/09/13 09:44:41;;;;;;;7.35;1.80;;;;;;;;;;5074127;28;20035;-68
2023/09/13 09:47:13;;;;;;;3.15;1.52;;;;;;;;;;5074379;28;20039;-68
2023/09/13 09:49:43;;;;;;;4.72;1.77;;;;;;;;;;5056409;28;20112;-69
2023/09/13 09:52:08;;;;;;;7.18;2.13;;;;;;;;;;5073458;28;20151;-68
2023/09/13 09:54:34;;;;;;;3.78;1.95;;;;;;;;;;5074134;28;20024;-68
2023/09/13 09:56:59;;;;;;;15.68;1.70;;;;;;;;;;5055512;28;20025;-68
2023/09/13 09:59:28;;;;;;;5.07;1.40;;;;;;;;;;5073941;28;20024;-68
2023/09/13 10:01:57;;;;;;;5.15;1.73;;;;;;;;;;5074280;28;20483;-68
2023/09/13 10:04:23;;;;;;;3.40;1.73;;;;;;;;;;5074150;28;20035;-68
2023/09/13 10:07:00;;;;;;;7.15;1.95;;;;;;;;;;5074403;28;20020;-68
2023/09/13 10:09:44;;;;;;;5.20;2.05;;;;;;;;;;5073226;28;20074;-68
2023/09/13 10:12:10;;;;;;;4.35;2.28;;;;;;;;;;5069830;28;20110;-69
2023/09/13 10:14:37;;;;;;;2.85;1.33;;;;;;;;;;5060736;28;20055;-69
2023/09/13 10:17:04;;;;;;;8.63;1.73;;;;;;;;;;5062319;28;20102;-69
2023/09/13 10:19:30;;;;;;;9.48;1.90;;;;;;;;;;5037491;28;20024;-69
2023/09/13 10:21:56;;;;;;;6.15;1.75;;;;;;;;;;5060161;28;20047;-70
2023/09/13 10:24:36;;;;;;;2.72;1.83;;;;;;;;;;5042271;28;20502;-69
2023/09/13 10:27:05;;;;;;;7.95;1.92;;;;;;;;;;5048209;28;20024;-69
2023/09/13 10:29:38;;;;;;;4.68;1.90;;;;;;;;;;5056456;28;20434;-69
2023/09/13 10:32:07;;;;;;;5.63;1.90;;;;;;;;;;5042817;28;20028;-70
2023/09/13 10:34:40;;;;;;;6.43;1.70;;;;;;;;;;5040038;28;20027;-69
2023/09/13 10:37:09;;;;;;;4.38;1.67;;;;;;;;;;5046194;28;20027;-69
2023/09/13 10:39:42;;;;;;;6.00;1.80;;;;;;;;;;5041345;28;20032;-69
2023/09/13 10:42:07;;;;;;;5.63;2.00;;;;;;;;;;5064368;28;20021;-69
2023/09/13 10:44:35;;;;;;;7.53;1.98;;;;;;;;;;5063662;28;20098;-69
2023/09/13 10:47:01;;;;;;;5.22;2.33;;;;;;;;;;5063445;28;20032;-70
2023/09/13 10:49:27;;;;;;;7.38;1.95;;;;;;;;;;5037405;28;20029;-69
2023/09/13 10:51:55;;;;;;;13.20;1.98;;;;;;;;;;5056129;28;20500;-69
2023/09/13 10:54:20;;;;;;;5.30;1.70;;;;;;;;;;5058971;28;20563;-69
2023/09/13 10:56:48;;;;;;;7.13;1.70;;;;;;;;;;5047169;28;20036;-69
2023/09/13 10:59:17;;;;;;;6.10;2.20;;;;;;;;;;5048601;28;20459;-70
2023/09/13 11:01:46;;;;;;;5.22;1.70;;;;;;;;;;5055460;28;20468;-70
2023/09/13 11:04:13;;;;;;;6.75;2.13;;;;;;;;;;5055288;28;20021;-69
2023/09/13 11:06:38;;;;;;;6.38;1.65;;;;;;;;;;5072645;28;20090;-69
2023/09/13 11:09:14;;;;;;;7.88;2.60;;;;;;;;;;5055061;28;20028;-69
2023/09/13 11:11:39;;;;;;;4.20;1.73;;;;;;;;;;5055485;28;20555;-69
2023/09/13 11:14:11;;;;;;;9.80;1.80;;;;;;;;;;5054824;28;20100;-70
2023/09/13 11:16:39;;;;;;;7.38;1.80;;;;;;;;;;5073071;28;20028;-69
2023/09/13 11:19:09;;;;;;;4.28;1.85;;;;;;;;;;5054306;28;20532;-72
2023/09/13 11:21:51;;;;;;;6.55;1.70;;;;;;;;;;5055374;28;20112;-69
2023/09/13 11:24:40;;;;;;;6.05;2.10;;;;;;;;;;5055019;28;20098;-69
2023/09/13 11:27:11;;;;;;;5.55;1.58;;;;;;;;;;5054884;28;20107;-69
2023/09/13 11:29:50;;;;;;;6.40;1.92;;;;;;;;;;5055886;28;20040;-69
2023/09/13 11:32:17;;;;;;;3.03;1.70;;;;;;;;;;5055967;28;20047;-69
2023/09/13 11:34:43;;;;;;;10.88;2.28;;;;;;;;;;5073089;28;20028;-69
2023/09/13 11:37:10;;;;;;;9.27;1.92;;;;;;;;;;5054879;28;20031;-69
2023/09/13 11:39:35;;;;;;;3.55;1.95;;;;;;;;;;5072893;28;20031;-69
2023/09/13 11:42:03;;;;;;;6.55;1.75;;;;;;;;;;5055227;28;20024;-69
2023/09/13 11:44:29;;;;;;;4.18;1.60;;;;;;;;;;5072355;28;20467;-69
2023/09/13 11:46:54;;;;;;;6.20;1.77;;;;;;;;;;5075771;28;20116;-69
2023/09/13 11:49:21;;;;;;;4.28;1.63;;;;;;;;;;5076631;28;20059;-69
2023/09/13 11:51:54;;;;;;;4.57;1.83;;;;;;;;;;5076538;28;20089;-69
2023/09/13 11:54:21;;;;;;;6.32;1.80;;;;;;;;;;5076352;28;20021;-69
2023/09/13 11:56:54;;;;;;;4.25;1.65;;;;;;;;;;5057735;28;20028;-69
2023/09/13 11:59:26;;;;;;;5.05;1.80;;;;;;;;;;5076395;28;20070;-69
2023/09/13 12:01:52;;;;;;;4.72;1.92;;;;;;;;;;5076328;28;20032;-68
2023/09/13 12:04:20;;;;;;;5.18;1.80;;;;;;;;;;5075670;28;20016;-69
2023/09/13 12:06:48;;;;;;;4.43;1.60;;;;;;;;;;5076357;28;20154;-69
2023/09/13 12:09:15;;;;;;;7.82;2.35;;;;;;;;;;5058583;28;20089;-68
2023/09/13 12:11:41;;;;;;;3.20;1.70;;;;;;;;;;5076085;28;20024;-68
2023/09/13 12:14:09;;;;;;;3.88;1.70;;;;;;;;;;5075396;28;20027;-69
2023/09/13 12:16:36;;;;;;;3.15;1.50;;;;;;;;;;5076247;28;20025;-68
2023/09/13 12:19:02;;;;;;;3.28;1.30;;;;;;;;;;5076128;28;20414;-69
2023/09/13 12:21:28;;;;;;;4.55;1.42;;;;;;;;;;5076261;28;20029;-69
2023/09/13 12:23:54;;;;;;;3.63;1.42;;;;;;;;;;5057926;28;20032;-69
2023/09/13 12:26:19;;;;;;;2.42;1.45;;;;;;;;;;5076148;28;20033;-68
2023/09/13 12:28:45;;;;;;;3.78;1.58;;;;;;;;;;5057438;28;20028;-69
2023/09/13 12:31:15;;;;;;;6.38;1.58;;;;;;;;;;5075818;28;20027;-68
2023/09/13 12:33:42;;;;;;;2.38;1.35;;;;;;;;;;5075808;28;20017;-69
2023/09/13 12:36:08;;;;;;;2.08;1.38;;;;;;;;;;5057737;28;20108;-68
2023/09/13 12:38:42;;;;;;;8.25;1.63;;;;;;;;;;5075860;28;20052;-68
2023/09/13 12:41:09;;;;;;;5.20;1.60;;;;;;;;;;5075099;28;20539;-69
2023/09/13 12:43:39;;;;;;;8.70;1.90;;;;;;;;;;5075862;28;20052;-68
2023/09/13 12:46:05;;;;;;;3.22;1.58;;;;;;;;;;5059449;28;20454;-69
2023/09/13 12:48:31;;;;;;;6.10;1.70;;;;;;;;;;5054928;28;20544;-69
2023/09/13 12:50:58;;;;;;;3.88;1.33;;;;;;;;;;5050841;28;20025;-69
2023/09/13 12:53:27;;;;;;;4.47;1.63;;;;;;;;;;5057067;28;20024;-69
2023/09/13 12:55:52;;;;;;;3.45;1.48;;;;;;;;;;5056275;28;20024;-69
2023/09/13 12:58:18;;;;;;;3.33;1.27;;;;;;;;;;5057179;28;20032;-69
2023/09/13 13:00:51;;;;;;;4.15;1.42;;;;;;;;;;5075205;28;20031;-69
2023/09/13 13:03:17;;;;;;;3.45;1.42;;;;;;;;;;5074946;28;20028;-69
2023/09/13 13:05:44;;;;;;;5.15;1.60;;;;;;;;;;5056696;28;20031;-69
2023/09/13 13:08:09;;;;;;;3.25;1.45;;;;;;;;;;5075384;28;20031;-69
2023/09/13 13:10:54;;;;;;;3.92;1.45;;;;;;;;;;5074536;28;20024;-69
2023/09/13 13:13:21;;;;;;;4.63;1.70;;;;;;;;;;5075105;28;20024;-69
2023/09/13 13:15:46;;;;;;;6.25;1.70;;;;;;;;;;5074444;28;20111;-69
2023/09/13 13:18:12;;;;;;;2.28;1.52;;;;;;;;;;5074435;28;20052;-69
2023/09/13 13:20:44;;;;;;;5.15;1.52;;;;;;;;;;5074910;28;20028;-69
2023/09/13 13:23:09;;;;;;;3.88;1.50;;;;;;;;;;5080757;22;20083;-68
2023/09/13 13:25:34;;;;;;;7.32;1.77;;;;;;;;;;5053365;28;20044;-68
2023/09/13 13:27:59;;;;;;;4.18;1.58;;;;;;;;;;5054761;28;20387;-68
2023/09/13 13:30:25;;;;;;;5.65;3.35;;;;;;;;;;5036192;28;20124;-68
2023/09/13 13:32:50;;;;;;;2.85;1.42;;;;;;;;;;5054505;28;20017;-68
2023/09/13 13:35:15;;;;;;;3.42;1.50;;;;;;;;;;5054507;28;20035;-68
2023/09/13 13:37:46;;;;;;;5.55;1.63;;;;;;;;;;5055014;28;20082;-68
2023/09/13 13:40:12;;;;;;;7.88;1.70;;;;;;;;;;5046434;28;20499;-69
2023/09/13 13:42:37;;;;;;;7.30;1.52;;;;;;;;;;5036085;28;20032;-68
2023/09/13 13:45:04;;;;;;;3.92;1.77;;;;;;;;;;5033512;28;20036;-68
2023/09/13 13:47:29;;;;;;;3.13;1.35;;;;;;;;;;5032479;28;20061;-68
2023/09/13 13:49:54;;;;;;;6.10;1.92;;;;;;;;;;5034245;28;20084;-68
2023/09/13 13:52:20;;;;;;;2.72;1.50;;;;;;;;;;5047155;28;20109;-69
2023/09/13 13:54:45;;;;;;;4.57;1.77;;;;;;;;;;5052724;28;20029;-69
2023/09/13 13:57:12;;;;;;;4.32;1.50;;;;;;;;;;5053251;28;20028;-69
2023/09/13 13:59:38;;;;;;;4.22;1.50;;;;;;;;;;5053443;28;20429;-68
2023/09/13 14:02:04;;;;;;;4.72;1.92;;;;;;;;;;5052295;28;20103;-68
2023/09/13 14:04:29;;;;;;;5.18;1.80;;;;;;;;;;5052026;28;20021;-69
2023/09/13 14:06:54;;;;;;;3.33;2.00;;;;;;;;;;5053010;28;20029;-69
2023/09/13 14:09:20;;;;;;;6.10;1.65;;;;;;;;;;5052707;28;20505;-69
2023/09/13 14:11:45;;;;;;;3.45;1.88;;;;;;;;;;5053461;28;20108;-69
2023/09/13 14:14:13;;;;;;;5.70;1.60;;;;;;;;;;5052233;28;20021;-69
2023/09/13 14:16:40;;;;;;;3.08;1.63;;;;;;;;;;5031670;28;20049;-69
2023/09/13 14:19:05;;;;;;;6.15;1.58;;;;;;;;;;5033439;28;20475;-69
2023/09/13 14:21:30;;;;;;;5.47;1.73;;;;;;;;;;5034299;28;20040;-69
2023/09/13 14:23:57;;;;;;;4.68;1.83;;;;;;;;;;5051711;28;20032;-69
2023/09/13 14:26:22;;;;;;;3.13;1.58;;;;;;;;;;5053249;28;20491;-69
2023/09/13 14:28:48;;;;;;;3.05;1.58;;;;;;;;;;5052777;28;20023;-69
2023/09/13 14:31:13;;;;;;;4.38;1.75;;;;;;;;;;5053351;28;20047;-69
2023/09/13 14:33:41;;;;;;;4.40;1.40;;;;;;;;;;5053227;28;20387;-69
2023/09/13 14:36:07;;;;;;;4.43;1.55;;;;;;;;;;5053074;28;20036;-69
2023/09/13 14:38:32;;;;;;;4.45;1.67;;;;;;;;;;5053347;28;20070;-69